Time;durP1;ratioP1;P1;durP2;ratioP2;P2;SDS_P1;SDS_P2;PMS_P1;PMS_P2;Temp;Humidity;BMP_temperature;BMP_pressure;BME280_temperature;BME280_humidity;BME280_pressure;Samples;Min_cycle;Max_cycle;Signal;HPM_P1;HPM_P2
2023/12/28 00:01:41;;;;;;;16.63;3.13;;;10.00;92.80;;;;;;4974235;28;20545;-82
2023/12/28 00:04:09;;;;;;;16.63;3.43;;;10.00;93.50;;;;;;4972304;28;20486;-82
2023/12/28 00:06:36;;;;;;;15.23;2.67;;;10.10;94.40;;;;;;4974147;28;20461;-83
2023/12/28 00:09:03;;;;;;;18.43;3.57;;;10.10;94.40;;;;;;4974416;28;20461;-82
2023/12/28 00:11:30;;;;;;;17.40;3.40;;;10.10;94.40;;;;;;4974696;28;20570;-82
2023/12/28 00:13:57;;;;;;;24.20;5.20;;;10.20;94.40;;;;;;4972552;28;20830;-81
2023/12/28 00:16:24;;;;;;;18.37;5.00;;;10.20;94.40;;;;;;4973740;28;20554;-81
2023/12/28 00:18:51;;;;;;;19.17;5.03;;;10.20;96.80;;;;;;4974979;28;20459;-82
2023/12/28 00:21:19;;;;;;;18.67;5.30;;;10.10;97.20;;;;;;4978637;28;20455;-81
2023/12/28 00:23:46;;;;;;;19.53;6.13;;;10.10;97.30;;;;;;4976472;28;20583;-81
2023/12/28 00:26:13;;;;;;;20.03;7.00;;;10.00;97.50;;;;;;4976992;28;20823;-80
2023/12/28 00:28:40;;;;;;;19.20;8.60;;;10.00;97.60;;;;;;4978353;28;20526;-80
2023/12/28 00:31:10;;;;;;;22.90;12.10;;;10.00;97.60;;;;;;4978595;28;20461;-83
2023/12/28 00:33:37;;;;;;;22.47;12.30;;;9.90;98.00;;;;;;4976422;28;20453;-82
2023/12/28 00:36:04;;;;;;;25.50;14.47;;;9.90;98.00;;;;;;4976772;28;20451;-81
2023/12/28 00:38:32;;;;;;;23.13;17.00;;;9.90;98.00;;;;;;4978347;28;20826;-83
2023/12/28 00:40:59;;;;;;;23.70;19.97;;;9.90;98.00;;;;;;4977968;28;20981;-81
2023/12/28 00:43:26;;;;;;;29.77;27.07;;;9.80;98.00;;;;;;4976189;28;20510;-82
2023/12/28 00:45:52;;;;;;;35.97;32.80;;;9.80;98.00;;;;;;4976341;28;20538;-81
2023/12/28 00:48:19;;;;;;;38.90;35.97;;;9.80;98.00;;;;;;4977763;28;20543;-81
2023/12/28 00:50:47;;;;;;;48.57;45.07;;;9.80;98.00;;;;;;4977886;28;20461;-81
2023/12/28 00:53:15;;;;;;;48.80;45.50;;;9.80;98.00;;;;;;4976291;28;20454;-81
2023/12/28 00:55:43;;;;;;;64.50;60.67;;;9.70;98.60;;;;;;4976148;28;20497;-81
2023/12/28 00:58:10;;;;;;;47.17;43.67;;;9.70;99.70;;;;;;4977458;28;20841;-81
2023/12/28 01:00:36;;;;;;;46.70;43.30;;;9.70;98.00;;;;;;4977487;28;20457;-81
2023/12/28 01:03:04;;;;;;;44.90;41.73;;;9.70;98.00;;;;;;4975975;28;20462;-80
2023/12/28 01:05:30;;;;;;;46.40;42.97;;;9.70;98.00;;;;;;4975690;28;20451;-81
2023/12/28 01:07:57;;;;;;;42.00;39.00;;;9.70;99.20;;;;;;4977569;28;20451;-81
2023/12/28 01:10:25;;;;;;;41.60;38.40;;;9.70;98.10;;;;;;4977564;28;20517;-81
2023/12/28 01:12:54;;;;;;;40.50;37.60;;;9.60;98.40;;;;;;4976151;28;20457;-81
2023/12/28 01:15:20;;;;;;;49.20;45.97;;;9.60;98.00;;;;;;4975426;28;20447;-81
2023/12/28 01:17:47;;;;;;;43.37;39.87;;;9.60;98.60;;;;;;4977400;28;20465;-81
2023/12/28 01:20:14;;;;;;;54.30;50.40;;;9.60;97.90;;;;;;4977372;28;20821;-80
2023/12/28 01:22:41;;;;;;;57.73;54.13;;;9.70;99.00;;;;;;4976053;28;20443;-81
2023/12/28 01:25:08;;;;;;;45.30;41.87;;;9.70;99.30;;;;;;4974859;28;20553;-80
2023/12/28 01:27:35;;;;;;;40.20;37.00;;;9.70;98.00;;;;;;4977238;28;20455;-80
2023/12/28 01:30:04;;;;;;;49.70;46.50;;;9.80;98.00;;;;;;4976785;28;20455;-81
2023/12/28 01:32:31;;;;;;;50.43;47.20;;;9.70;98.70;;;;;;4975582;28;20450;-81
2023/12/28 01:34:58;;;;;;;47.07;43.97;;;9.70;98.00;;;;;;4974502;28;20457;-81
2023/12/28 01:37:25;;;;;;;48.07;44.67;;;9.70;98.40;;;;;;4977065;28;20451;-80
2023/12/28 01:39:51;;;;;;;52.37;49.10;;;9.70;99.70;;;;;;4977058;28;20450;-80
2023/12/28 01:42:18;;;;;;;49.20;46.00;;;9.70;99.30;;;;;;4976362;28;20818;-81
2023/12/28 01:44:45;;;;;;;47.53;44.30;;;9.70;99.30;;;;;;4974324;28;20478;-81
2023/12/28 01:47:13;;;;;;;54.23;50.70;;;9.60;99.20;;;;;;4976679;28;20458;-80
2023/12/28 01:49:40;;;;;;;63.17;59.47;;;9.60;99.50;;;;;;4976833;28;20458;-81
2023/12/28 01:52:08;;;;;;;72.33;68.43;;;9.60;99.70;;;;;;4976230;28;20801;-80
2023/12/28 01:54:35;;;;;;;65.73;61.87;;;9.60;99.30;;;;;;4974276;28;20446;-80
2023/12/28 01:57:04;;;;;;;54.30;50.90;;;9.70;99.20;;;;;;4976415;28;20864;-80
2023/12/28 01:59:31;;;;;;;58.93;55.43;;;9.70;99.20;;;;;;4976400;28;20443;-80
2023/12/28 02:01:59;;;;;;;62.37;58.57;;;9.70;98.60;;;;;;4975752;28;20509;-80
2023/12/28 02:04:28;;;;;;;65.30;61.20;;;9.70;99.70;;;;;;4973870;28;21073;-80
2023/12/28 02:06:58;;;;;;;66.07;62.27;;;9.70;99.60;;;;;;4975902;28;20513;-79
2023/12/28 02:09:25;;;;;;;65.50;61.40;;;9.70;99.30;;;;;;4976498;28;20451;-79
2023/12/28 02:11:52;;;;;;;56.83;52.53;;;9.80;99.60;;;;;;4975832;28;20955;-79
2023/12/28 02:14:19;;;;;;;55.17;51.37;;;9.90;98.00;;;;;;4973861;28;20957;-79
2023/12/28 02:16:50;;;;;;;52.47;48.97;;;9.80;99.90;;;;;;4975663;28;20463;-79
2023/12/28 02:19:26;;;;;;;50.17;47.03;;;9.80;98.80;;;;;;4976327;28;20443;-79
2023/12/28 02:21:56;;;;;;;48.03;44.97;;;9.80;98.20;;;;;;4975954;28;20493;-78
2023/12/28 02:24:22;;;;;;;47.87;44.80;;;9.80;98.30;;;;;;4973672;28;20491;-80
2023/12/28 02:26:51;;;;;;;50.20;47.10;;;9.80;99.10;;;;;;4975421;28;20450;-80
2023/12/28 02:29:18;;;;;;;57.27;53.80;;;9.70;99.50;;;;;;4975883;28;20541;-79
2023/12/28 02:31:52;;;;;;;72.07;68.07;;;9.60;99.90;;;;;;4975728;28;20459;-79
2023/12/28 02:34:30;;;;;;;77.27;73.10;;;9.60;99.90;;;;;;4973362;28;20451;-79
2023/12/28 02:36:58;;;;;;;74.90;70.97;;;9.70;99.90;;;;;;4975453;28;20930;-79
2023/12/28 02:39:27;;;;;;;76.93;72.93;;;9.80;99.80;;;;;;4976042;28;20447;-79
2023/12/28 02:41:56;;;;;;;76.47;72.37;;;9.70;99.70;;;;;;4975175;28;20450;-79
2023/12/28 02:44:23;;;;;;;77.47;73.37;;;9.70;99.90;;;;;;4973386;28;20891;-79
2023/12/28 02:46:50;;;;;;;87.30;82.90;;;9.60;99.90;;;;;;4975178;28;20939;-79
2023/12/28 02:49:16;;;;;;;96.80;92.07;;;9.50;99.90;;;;;;4975760;28;20491;-79
2023/12/28 02:51:43;;;;;;;108.97;103.90;;;9.50;99.90;;;;;;4975153;28;20969;-79
2023/12/28 02:54:10;;;;;;;124.30;118.40;;;9.40;99.90;;;;;;4972928;28;20447;-78
2023/12/28 02:56:37;;;;;;;121.27;115.77;;;9.40;99.90;;;;;;4975076;28;20459;-79
2023/12/28 02:59:05;;;;;;;129.10;123.37;;;9.50;99.90;;;;;;4975179;28;20463;-80
2023/12/28 03:01:32;;;;;;;134.03;128.07;;;9.40;99.90;;;;;;4975198;28;20455;-80
2023/12/28 03:03:58;;;;;;;127.70;122.10;;;9.40;99.90;;;;;;4972925;28;20839;-80
2023/12/28 03:06:24;;;;;;;127.53;121.90;;;9.40;99.90;;;;;;4974486;28;20465;-80
2023/12/28 03:08:51;;;;;;;128.40;122.50;;;9.40;99.90;;;;;;4975674;28;20447;-79
2023/12/28 03:11:20;;;;;;;118.60;113.13;;;9.40;99.90;;;;;;4975360;28;20459;-79
2023/12/28 03:13:47;;;;;;;133.93;128.20;;;9.40;99.90;;;;;;4973504;28;20486;-78
2023/12/28 03:16:15;;;;;;;126.30;120.63;;;9.40;99.90;;;;;;4974028;28;20454;-79
2023/12/28 03:18:42;;;;;;;137.63;131.30;;;9.40;99.90;;;;;;4975258;28;20462;-79
2023/12/28 03:21:09;;;;;;;128.30;121.50;;;9.30;99.90;;;;;;4974918;28;20455;-80
2023/12/28 03:23:36;;;;;;;131.77;123.80;;;9.40;99.90;;;;;;4973266;28;20461;-79
2023/12/28 03:26:03;;;;;;;132.43;124.53;;;9.40;99.90;;;;;;4973555;28;21013;-79
2023/12/28 03:28:30;;;;;;;131.50;123.60;;;9.40;99.90;;;;;;4974921;28;20459;-79
2023/12/28 03:30:58;;;;;;;136.93;128.83;;;9.40;99.90;;;;;;4975137;28;20973;-80
2023/12/28 03:33:27;;;;;;;129.80;122.07;;;9.40;99.90;;;;;;4973344;28;20510;-80
2023/12/28 03:35:54;;;;;;;134.57;126.97;;;9.30;99.90;;;;;;4973533;28;20854;-80
2023/12/28 03:38:20;;;;;;;134.20;126.20;;;9.30;99.90;;;;;;4974894;28;20549;-79
2023/12/28 03:40:49;;;;;;;123.47;115.80;;;9.40;99.90;;;;;;4974978;28;20458;-79
2023/12/28 03:43:16;;;;;;;114.83;107.30;;;9.40;99.90;;;;;;4973305;28;20467;-80
2023/12/28 03:45:43;;;;;;;107.80;100.80;;;9.50;99.90;;;;;;4973159;28;20494;-80
2023/12/28 03:48:10;;;;;;;94.07;87.67;;;9.60;99.90;;;;;;4975053;28;20461;-79
2023/12/28 03:50:39;;;;;;;84.63;78.43;;;9.50;99.90;;;;;;4975014;28;20457;-81
2023/12/28 03:53:06;;;;;;;78.17;71.73;;;9.50;99.90;;;;;;4973401;28;20815;-79
2023/12/28 03:55:33;;;;;;;68.83;63.03;;;9.50;99.90;;;;;;4976184;28;20454;-79
2023/12/28 03:58:00;;;;;;;73.07;67.30;;;9.60;99.60;;;;;;4978676;28;20855;-79
2023/12/28 04:00:27;;;;;;;72.17;66.43;;;9.60;99.90;;;;;;4979289;28;20461;-80
2023/12/28 04:02:53;;;;;;;69.87;64.17;;;9.50;99.90;;;;;;4977640;28;20454;-79
2023/12/28 04:05:20;;;;;;;69.20;63.50;;;9.50;99.90;;;;;;4976775;28;20479;-80
2023/12/28 04:07:49;;;;;;;63.17;57.67;;;9.50;99.90;;;;;;4978801;28;20802;-79
2023/12/28 04:10:29;;;;;;;60.73;55.33;;;9.40;99.90;;;;;;4978344;28;20963;-80
2023/12/28 04:12:57;;;;;;;61.67;56.10;;;9.40;99.90;;;;;;4977355;28;20855;-80
2023/12/28 04:15:24;;;;;;;57.13;51.63;;;9.30;99.90;;;;;;4976434;28;20449;-81
2023/12/28 04:17:51;;;;;;;56.73;51.50;;;9.40;99.90;;;;;;4978334;28;20819;-79
2023/12/28 04:20:19;;;;;;;57.40;52.10;;;9.40;99.90;;;;;;4978212;28;20459;-80
2023/12/28 04:22:46;;;;;;;56.17;50.90;;;9.30;99.70;;;;;;4977342;28;20455;-80
2023/12/28 04:25:16;;;;;;;50.83;45.83;;;9.30;99.60;;;;;;4976080;28;20518;-80
2023/12/28 04:27:43;;;;;;;49.27;43.87;;;9.30;98.80;;;;;;4978609;28;20470;-80
2023/12/28 04:30:13;;;;;;;47.87;42.77;;;9.30;99.20;;;;;;4978866;28;20451;-81
2023/12/28 04:32:40;;;;;;;124.73;85.20;;;9.30;98.80;;;;;;4977534;28;20531;-80
2023/12/28 04:35:07;;;;;;;98.83;91.83;;;9.40;97.90;;;;;;4975792;28;21161;-81
2023/12/28 04:37:35;;;;;;;28.67;27.37;;;9.50;97.90;;;;;;4977945;28;20450;-81
2023/12/28 04:40:03;;;;;;;27.97;26.57;;;9.50;97.90;;;;;;4977840;28;20490;-80
2023/12/28 04:42:31;;;;;;;23.70;22.60;;;9.50;97.90;;;;;;4977126;28;20462;-80
2023/12/28 04:44:57;;;;;;;24.40;23.20;;;9.40;97.80;;;;;;4975629;28;20494;-80
2023/12/28 04:47:24;;;;;;;23.73;22.23;;;9.40;97.80;;;;;;4978256;28;20817;-80
2023/12/28 04:49:51;;;;;;;21.87;20.57;;;9.40;97.80;;;;;;4977678;28;20550;-80
2023/12/28 04:52:18;;;;;;;24.00;22.60;;;9.30;97.80;;;;;;4977373;28;20824;-80
2023/12/28 04:54:45;;;;;;;23.87;22.67;;;9.30;97.80;;;;;;4975265;28;20505;-77
2023/12/28 04:57:12;;;;;;;26.10;24.60;;;9.20;97.80;;;;;;4977341;28;20470;-76
2023/12/28 04:59:40;;;;;;;23.67;22.27;;;9.30;97.80;;;;;;4977831;28;20469;-76
2023/12/28 05:02:07;;;;;;;23.10;21.77;;;9.30;97.80;;;;;;4977226;28;20459;-77
2023/12/28 05:04:37;;;;;;;23.83;22.47;;;9.20;97.80;;;;;;4974941;28;20450;-77
2023/12/28 05:07:04;;;;;;;26.60;25.30;;;9.20;98.10;;;;;;4977493;28;20457;-76
2023/12/28 05:09:31;;;;;;;25.30;23.90;;;9.30;97.80;;;;;;4978661;28;20856;-76
2023/12/28 05:11:58;;;;;;;25.60;24.20;;;9.30;97.80;;;;;;4976811;28;20459;-77
2023/12/28 05:14:25;;;;;;;23.20;21.10;;;9.40;98.20;;;;;;4974915;28;20457;-77
2023/12/28 05:16:53;;;;;;;20.17;18.97;;;9.60;97.90;;;;;;4977151;28;20566;-77
2023/12/28 05:19:20;;;;;;;19.80;18.20;;;9.60;97.90;;;;;;4977475;28;20835;-77
2023/12/28 05:21:47;;;;;;;56.50;18.43;;;9.70;97.90;;;;;;4977130;28;20457;-77
2023/12/28 05:24:13;;;;;;;54.83;16.40;;;9.70;97.90;;;;;;4974549;28;20486;-77
2023/12/28 05:26:41;;;;;;;51.67;13.87;;;9.80;98.00;;;;;;4976747;28;20492;-77
2023/12/28 05:29:07;;;;;;;50.97;13.43;;;9.80;98.00;;;;;;4976944;28;20451;-77
2023/12/28 05:31:34;;;;;;;48.90;11.70;;;9.80;98.00;;;;;;4977111;28;20490;-76
2023/12/28 05:34:03;;;;;;;47.10;9.80;;;9.80;98.00;;;;;;4974746;28;20815;-77
2023/12/28 05:36:29;;;;;;;45.07;7.40;;;9.90;98.00;;;;;;4976120;28;20513;-77
2023/12/28 05:38:56;;;;;;;43.50;7.63;;;10.00;97.90;;;;;;4977088;28;20458;-77
2023/12/28 05:41:23;;;;;;;43.00;6.20;;;9.90;98.00;;;;;;4976829;28;20451;-77
2023/12/28 05:43:50;;;;;;;41.87;5.80;;;10.00;97.60;;;;;;4974841;28;20455;-77
2023/12/28 05:46:16;;;;;;;40.87;6.10;;;10.00;97.60;;;;;;4975616;28;20487;-77
2023/12/28 05:48:43;;;;;;;38.57;4.60;;;10.00;97.60;;;;;;4976938;28;20451;-76
2023/12/28 05:51:12;;;;;;;38.83;4.60;;;10.00;97.50;;;;;;4976862;28;20451;-77
2023/12/28 05:53:39;;;;;;;38.13;4.53;;;10.10;97.60;;;;;;4974858;28;20455;-77
2023/12/28 05:56:06;;;;;;;37.17;4.17;;;10.10;97.60;;;;;;4975532;28;20506;-77
2023/12/28 05:58:33;;;;;;;37.03;4.50;;;10.10;97.40;;;;;;4976669;28;20805;-77
2023/12/28 06:01:00;;;;;;;35.23;3.70;;;10.10;97.60;;;;;;4976635;28;20451;-76
2023/12/28 06:03:28;;;;;;;35.67;3.30;;;10.10;97.00;;;;;;4974987;28;20451;-76
2023/12/28 06:05:55;;;;;;;35.40;2.90;;;10.10;95.80;;;;;;4975343;28;20509;-76
2023/12/28 06:08:24;;;;;;;35.47;3.30;;;10.20;95.50;;;;;;4976271;28;20455;-77
2023/12/28 06:10:50;;;;;;;34.37;3.30;;;10.10;95.70;;;;;;4976536;28;20486;-76
2023/12/28 06:13:17;;;;;;;34.13;3.10;;;10.10;96.00;;;;;;4974692;28;20542;-77
2023/12/28 06:15:44;;;;;;;34.07;3.20;;;10.10;96.20;;;;;;4974498;28;20494;-76
2023/12/28 06:18:12;;;;;;;33.63;3.10;;;10.10;95.60;;;;;;4975702;28;20455;-76
2023/12/28 06:20:39;;;;;;;33.50;3.10;;;10.10;96.20;;;;;;4976357;28;20595;-76
2023/12/28 06:23:08;;;;;;;32.90;2.40;;;10.10;95.70;;;;;;4974817;28;20447;-77
2023/12/28 06:25:36;;;;;;;32.63;2.60;;;10.10;94.40;;;;;;4974283;28;20487;-76
2023/12/28 06:28:03;;;;;;;32.60;2.80;;;10.20;94.50;;;;;;4976226;28;20455;-76
2023/12/28 06:30:30;;;;;;;32.40;2.20;;;10.20;94.60;;;;;;4976114;28;20455;-77
2023/12/28 06:32:57;;;;;;;32.40;2.60;;;10.20;94.40;;;;;;4974459;28;20463;-77
2023/12/28 06:35:24;;;;;;;32.03;2.30;;;10.20;94.40;;;;;;4974122;28;20454;-77
2023/12/28 06:37:51;;;;;;;32.10;2.10;;;10.20;94.40;;;;;;4975691;28;20963;-76
2023/12/28 06:40:18;;;;;;;32.10;2.30;;;10.20;94.40;;;;;;4975981;28;20455;-76
2023/12/28 06:42:46;;;;;;;31.33;1.80;;;10.20;94.40;;;;;;4974455;28;20938;-77
2023/12/28 06:45:13;;;;;;;31.60;1.80;;;10.30;93.30;;;;;;4973486;28;20506;-77
2023/12/28 06:47:40;;;;;;;31.60;1.60;;;10.30;92.50;;;;;;4975874;28;20808;-77
2023/12/28 06:50:08;;;;;;;31.67;1.70;;;10.30;92.60;;;;;;4975807;28;20837;-77
2023/12/28 06:52:35;;;;;;;31.60;1.80;;;10.20;93.40;;;;;;4974771;28;20461;-78
2023/12/28 06:55:02;;;;;;;31.50;1.80;;;10.20;93.80;;;;;;4973471;28;20459;-77
2023/12/28 06:57:29;;;;;;;31.33;1.90;;;10.20;93.30;;;;;;4975533;28;20828;-77
2023/12/28 06:59:59;;;;;;;31.10;1.90;;;10.10;94.30;;;;;;4975325;28;20459;-76
2023/12/28 07:02:26;;;;;;;31.00;1.80;;;10.10;94.30;;;;;;4974710;28;20494;-77
2023/12/28 07:04:53;;;;;;;30.93;1.90;;;10.10;94.10;;;;;;4971817;28;20494;-78
2023/12/28 07:07:20;;;;;;;30.90;1.90;;;10.10;94.10;;;;;;4975137;28;20483;-77
2023/12/28 07:09:47;;;;;;;31.00;1.90;;;10.10;94.20;;;;;;4975625;28;20466;-77
2023/12/28 07:12:14;;;;;;;31.00;2.03;;;10.10;94.40;;;;;;4974626;28;20833;-78
2023/12/28 07:14:41;;;;;;;30.77;2.20;;;10.10;94.30;;;;;;4972922;28;20462;-77
2023/12/28 07:17:11;;;;;;;29.80;2.00;;;10.20;94.20;;;;;;4974963;28;20451;-77
2023/12/28 07:19:38;;;;;;;30.80;2.10;;;10.10;94.40;;;;;;4975376;28;20912;-77
2023/12/28 07:22:05;;;;;;;30.57;2.00;;;10.10;93.80;;;;;;4974474;28;20450;-77
2023/12/28 07:24:32;;;;;;;30.40;1.90;;;10.10;94.30;;;;;;4972410;28;20543;-78
2023/12/28 07:27:01;;;;;;;30.40;1.90;;;10.10;93.50;;;;;;4974941;28;20493;-77
2023/12/28 07:29:28;;;;;;;29.87;2.00;;;10.10;93.90;;;;;;4975379;28;20931;-77
2023/12/28 07:31:55;;;;;;;52.37;3.40;;;10.10;93.20;;;;;;4974500;28;20543;-77
2023/12/28 07:34:23;;;;;;;17.30;1.80;;;10.10;94.30;;;;;;4972464;28;20947;-77
2023/12/28 07:36:50;;;;;;;17.30;1.80;;;10.10;94.40;;;;;;4974809;28;20469;-78
2023/12/28 07:39:17;;;;;;;17.17;1.70;;;10.10;94.30;;;;;;4974782;28;20455;-77
2023/12/28 07:41:44;;;;;;;16.70;1.80;;;10.10;93.40;;;;;;4974923;28;20554;-77
2023/12/28 07:44:11;;;;;;;16.83;1.80;;;10.10;94.40;;;;;;4972566;28;20558;-78
2023/12/28 07:46:37;;;;;;;16.77;1.60;;;10.10;94.40;;;;;;4974449;28;20475;-77
2023/12/28 07:49:04;;;;;;;16.70;1.60;;;10.00;94.30;;;;;;4975011;28;20873;-77
2023/12/28 07:51:34;;;;;;;16.87;1.70;;;10.00;93.30;;;;;;4974879;28;20451;-77
2023/12/28 07:54:01;;;;;;;16.70;1.70;;;10.10;93.40;;;;;;4972358;28;20450;-78
2023/12/28 07:56:28;;;;;;;16.83;1.60;;;10.10;93.70;;;;;;4973881;28;20450;-77
2023/12/28 07:58:55;;;;;;;16.70;1.60;;;10.10;93.60;;;;;;4974632;28;20470;-77
2023/12/28 08:01:23;;;;;;;16.60;1.60;;;10.10;93.90;;;;;;4974589;28;20455;-77
2023/12/28 08:03:50;;;;;;;16.60;1.50;;;10.10;93.30;;;;;;4972509;28;20461;-77
2023/12/28 08:06:17;;;;;;;16.63;1.63;;;10.10;92.70;;;;;;4972911;28;20482;-77
2023/12/28 08:08:45;;;;;;;16.53;1.60;;;10.10;93.50;;;;;;4974843;28;20457;-77
2023/12/28 08:11:12;;;;;;;16.67;1.40;;;10.10;92.70;;;;;;4974788;28;20817;-77
2023/12/28 08:13:38;;;;;;;16.40;1.40;;;10.10;92.90;;;;;;4972246;28;20455;-77
2023/12/28 08:16:06;;;;;;;16.47;1.50;;;10.20;92.00;;;;;;4972728;28;20443;-77
2023/12/28 08:18:33;;;;;;;16.40;1.50;;;10.20;93.10;;;;;;4974671;28;20458;-77
2023/12/28 08:21:00;;;;;;;16.40;1.40;;;10.20;92.40;;;;;;4974372;28;20967;-77
2023/12/28 08:23:27;;;;;;;16.63;1.60;;;10.20;92.70;;;;;;4970623;28;20466;-78
2023/12/28 08:25:55;;;;;;;9.53;3.20;;;10.20;93.00;;;;;;4971689;28;20490;-77
2023/12/28 08:28:23;;;;;;;12.97;2.90;;;10.30;91.90;;;;;;4974260;28;20539;-76
2023/12/28 08:30:50;;;;;;;7.80;4.53;;;10.30;91.50;;;;;;4974774;28;20454;-77
2023/12/28 08:33:17;;;;;;;7.43;3.10;;;10.30;92.30;;;;;;4973323;28;20527;-76
2023/12/28 08:35:45;;;;;;;15.80;4.07;;;10.20;91.70;;;;;;4972701;28;20957;-76
2023/12/28 08:38:12;;;;;;;8.53;3.80;;;10.30;91.10;;;;;;4974378;28;20881;-77
2023/12/28 08:40:39;;;;;;;9.17;2.87;;;10.30;91.50;;;;;;4975900;28;20454;-77
2023/12/28 08:43:07;;;;;;;6.63;2.67;;;10.30;91.20;;;;;;4976119;28;20458;-76
2023/12/28 08:45:35;;;;;;;6.33;3.13;;;10.40;91.10;;;;;;4975602;28;20458;-77
2023/12/28 08:48:02;;;;;;;10.43;6.00;;;10.50;91.20;;;;;;4977492;28;20455;-76
2023/12/28 08:50:29;;;;;;;12.40;2.93;;;10.50;91.20;;;;;;4977420;28;20461;-76
2023/12/28 08:52:56;;;;;;;7.50;3.27;;;10.40;91.10;;;;;;4976465;28;20962;-75
2023/12/28 08:55:23;;;;;;;9.70;3.57;;;10.40;91.10;;;;;;4974492;28;20446;-77
2023/12/28 08:57:50;;;;;;;11.57;3.30;;;10.50;91.20;;;;;;4977529;28;20454;-76
2023/12/28 09:00:19;;;;;;;7.30;2.73;;;10.50;91.20;;;;;;4977834;28;20451;-76
2023/12/28 09:02:46;;;;;;;9.03;2.73;;;10.50;91.20;;;;;;4976637;28;20548;-78
2023/12/28 09:05:12;;;;;;;8.87;3.00;;;10.50;91.20;;;;;;4975108;28;20457;-75
2023/12/28 09:07:42;;;;;;;13.90;3.47;;;10.50;91.20;;;;;;4976965;28;20475;-76
2023/12/28 09:10:10;;;;;;;11.40;3.93;;;10.50;91.20;;;;;;4974760;28;20458;-76
2023/12/28 09:12:37;;;;;;;7.20;2.73;;;10.40;91.10;;;;;;4975025;28;20451;-77
2023/12/28 09:15:05;;;;;;;12.53;3.20;;;10.50;91.20;;;;;;4975042;28;20455;-76
2023/12/28 09:17:33;;;;;;;14.00;3.90;;;10.50;91.20;;;;;;4977762;28;20537;-75
2023/12/28 09:20:01;;;;;;;12.97;3.43;;;10.60;91.20;;;;;;4977111;28;20939;-76
2023/12/28 09:22:28;;;;;;;11.00;2.73;;;10.60;91.20;;;;;;4976488;28;20459;-76
2023/12/28 09:24:55;;;;;;;19.00;3.20;;;10.70;91.20;;;;;;4974977;28;20545;-76
2023/12/28 09:27:21;;;;;;;8.43;3.57;;;10.70;91.20;;;;;;4977242;28;20486;-76
2023/12/28 09:29:48;;;;;;;7.60;3.03;;;10.70;91.20;;;;;;4977260;28;20477;-75
2023/12/28 09:32:16;;;;;;;9.37;2.73;;;10.70;91.20;;;;;;4976471;28;20825;-75
2023/12/28 09:34:44;;;;;;;7.17;2.60;;;10.80;91.30;;;;;;4974800;28;20450;-76
2023/12/28 09:37:11;;;;;;;11.57;3.73;;;10.90;91.30;;;;;;4977281;28;20447;-76
2023/12/28 09:39:38;;;;;;;11.00;3.70;;;11.00;91.70;;;;;;4977337;28;20462;-76
2023/12/28 09:42:12;;;;;;;10.43;3.90;;;11.00;91.40;;;;;;4976238;28;20455;-75
2023/12/28 09:44:41;;;;;;;10.43;2.97;;;11.10;91.40;;;;;;4972826;28;20997;-76
2023/12/28 09:47:08;;;;;;;9.90;3.90;;;11.10;91.40;;;;;;4957422;29;20486;-76
2023/12/28 09:49:38;;;;;;;9.87;2.93;;;11.20;91.40;;;;;;4957619;29;20455;-77
2023/12/28 09:52:08;;;;;;;10.13;2.67;;;11.30;91.50;;;;;;4956033;28;20490;-77
2023/12/28 09:54:35;;;;;;;11.00;2.37;;;11.40;91.50;;;;;;4968919;28;20451;-76
2023/12/28 09:57:03;;;;;;;11.23;2.90;;;11.40;88.00;;;;;;4976274;28;20455;-77
2023/12/28 09:59:32;;;;;;;13.60;3.90;;;11.40;89.90;;;;;;4976742;28;20435;-77
2023/12/28 10:02:01;;;;;;;16.65;3.20;;;11.40;86.00;;;;;;4975183;28;20449;-76
2023/12/28 10:04:29;;;;;;;8.83;2.70;;;11.40;86.00;;;;;;4973055;28;20636;-77
2023/12/28 10:06:56;;;;;;;10.43;2.70;;;11.40;90.20;;;;;;4976053;28;20541;-79
2023/12/28 10:09:26;;;;;;;8.03;2.50;;;11.40;90.10;;;;;;4976270;28;20470;-81
2023/12/28 10:11:54;;;;;;;9.40;2.67;;;11.40;88.20;;;;;;4974851;28;20461;-77
2023/12/28 10:14:21;;;;;;;17.90;8.47;;;11.40;86.00;;;;;;4973556;28;20198;-76
2023/12/28 10:16:48;;;;;;;13.40;2.97;;;11.50;86.40;;;;;;4975599;28;20459;-76
2023/12/28 10:19:15;;;;;;;13.10;3.77;;;11.50;86.00;;;;;;4976370;28;20451;-77
2023/12/28 10:21:43;;;;;;;258.50;85.40;;;11.50;86.10;;;;;;4975607;28;20911;-76
2023/12/28 10:24:11;;;;;;;6.07;1.80;;;11.50;86.10;;;;;;4973366;28;20199;-78
2023/12/28 10:26:40;;;;;;;14.63;2.30;;;11.50;86.10;;;;;;4975870;28;20570;-78
2023/12/28 10:29:07;;;;;;;17.83;3.80;;;11.60;86.20;;;;;;4976092;28;20494;-79
2023/12/28 10:31:35;;;;;;;16.57;2.57;;;11.70;86.20;;;;;;4975944;28;20522;-78
2023/12/28 10:34:04;;;;;;;7.90;2.00;;;11.70;86.20;;;;;;4973668;28;20457;-77
2023/12/28 10:36:36;;;;;;;7.57;2.10;;;11.80;78.60;;;;;;4975145;28;20487;-77
2023/12/28 10:39:08;;;;;;;16.15;2.95;;;12.00;78.80;;;;;;4974828;28;20477;-77
2023/12/28 10:41:37;;;;;;;16.67;2.60;;;12.10;78.90;;;;;;4975467;28;20199;-77
2023/12/28 10:44:07;;;;;;;12.57;3.10;;;12.30;79.00;;;;;;4972716;28;20453;-77
2023/12/28 10:46:40;;;;;;;14.90;2.20;;;12.50;79.20;;;;;;4975144;28;20482;-76
2023/12/28 10:49:13;;;;;;;10.10;2.53;;;12.70;79.40;;;;;;4975374;28;20941;-77
2023/12/28 10:51:43;;;;;;;12.33;3.00;;;12.80;79.50;;;;;;4975538;28;20445;-77
2023/12/28 10:54:23;;;;;;;12.33;3.13;;;12.80;70.20;;;;;;4973406;28;20455;-78
2023/12/28 10:56:56;;;;;;;10.47;2.10;;;12.80;67.60;;;;;;4974852;28;20442;-77
2023/12/28 10:59:33;;;;;;;13.43;2.10;;;12.80;67.60;;;;;;4975330;28;20443;-77
2023/12/28 11:02:03;;;;;;;13.90;2.07;;;12.70;67.40;;;;;;4974899;28;20439;-77
2023/12/28 11:04:43;;;;;;;6.87;1.87;;;12.60;63.50;;;;;;4973097;28;20485;-77
2023/12/28 11:07:12;;;;;;;8.43;2.30;;;12.70;63.50;;;;;;4974798;28;20463;-77
2023/12/28 11:09:41;;;;;;;5.70;1.60;;;12.70;65.70;;;;;;4975321;28;20458;-77
2023/12/28 11:12:10;;;;;;;14.80;2.70;;;12.60;63.40;;;;;;4974550;28;21006;-81
2023/12/28 11:14:41;;;;;;;20.23;2.67;;;12.60;66.00;;;;;;4967501;28;20534;-81
2023/12/28 11:17:08;;;;;;;8.40;2.70;;;12.60;63.30;;;;;;4955884;29;20436;-80
2023/12/28 11:19:36;;;;;;;8.80;2.50;;;12.60;63.30;;;;;;4956262;29;20538;-80
2023/12/28 11:22:04;;;;;;;12.03;2.30;;;12.60;63.30;;;;;;4955323;29;20455;-80
2023/12/28 11:24:32;;;;;;;9.13;2.07;;;12.70;63.50;;;;;;4952494;28;20879;-80
2023/12/28 11:26:59;;;;;;;15.23;2.10;;;12.80;65.40;;;;;;4955439;29;20811;-82
2023/12/28 11:29:26;;;;;;;12.30;2.63;;;12.70;63.50;;;;;;4955923;29;20483;-81
2023/12/28 11:31:55;;;;;;;13.90;2.70;;;12.70;63.50;;;;;;4955351;29;20490;-80
2023/12/28 11:34:26;;;;;;;18.87;3.23;;;12.70;63.40;;;;;;4952659;28;20616;-80
2023/12/28 11:36:56;;;;;;;10.23;2.37;;;12.80;63.60;;;;;;4954968;28;20452;-80
2023/12/28 11:39:33;;;;;;;8.30;2.03;;;12.90;65.20;;;;;;4955812;29;20452;-81
2023/12/28 11:42:04;;;;;;;7.93;2.40;;;12.90;63.60;;;;;;4955099;29;20482;-81
2023/12/28 11:44:31;;;;;;;9.50;2.13;;;13.00;63.70;;;;;;4951884;28;20766;-81
2023/12/28 11:46:59;;;;;;;13.17;2.73;;;12.90;63.60;;;;;;4955166;29;20837;-83
2023/12/28 11:49:29;;;;;;;9.07;2.23;;;13.00;63.80;;;;;;4955710;29;20963;-80
2023/12/28 11:51:57;;;;;;;10.40;2.63;;;12.90;63.60;;;;;;4955112;29;20447;-82
2023/12/28 11:54:25;;;;;;;9.70;2.60;;;12.90;63.60;;;;;;4951864;29;20459;-81
2023/12/28 11:56:52;;;;;;;12.27;2.70;;;13.20;63.90;;;;;;4954787;29;20534;-83
2023/12/28 11:59:19;;;;;;;13.33;2.67;;;13.20;63.90;;;;;;4955330;29;20440;-80
2023/12/28 12:01:50;;;;;;;10.27;2.30;;;13.10;63.80;;;;;;4955008;29;20451;-83
2023/12/28 12:04:19;;;;;;;6.47;2.07;;;13.00;63.70;;;;;;4953001;29;20468;-81
2023/12/28 12:06:47;;;;;;;10.20;2.30;;;12.90;63.60;;;;;;4954543;29;20451;-80
2023/12/28 12:09:14;;;;;;;7.37;2.00;;;13.00;63.70;;;;;;4955701;29;20526;-80
2023/12/28 12:11:41;;;;;;;10.43;2.20;;;13.00;63.70;;;;;;4954831;29;20459;-80
2023/12/28 12:14:09;;;;;;;13.33;3.37;;;12.90;63.60;;;;;;4952825;28;20464;-83
2023/12/28 12:16:36;;;;;;;7.60;2.20;;;12.90;63.60;;;;;;4957402;28;20451;-80
2023/12/28 12:19:03;;;;;;;20.60;3.07;;;13.00;63.70;;;;;;4958967;29;20455;-80
2023/12/28 12:21:32;;;;;;;10.20;2.20;;;13.10;63.80;;;;;;4958867;29;20456;-82
2023/12/28 12:23:58;;;;;;;8.63;2.03;;;13.10;63.80;;;;;;4968043;28;20455;-81
2023/12/28 12:26:26;;;;;;;12.13;1.90;;;13.10;63.80;;;;;;4961204;28;20782;-80
2023/12/28 12:28:53;;;;;;;7.90;1.70;;;13.00;63.70;;;;;;4958741;29;20483;-80
2023/12/28 12:31:21;;;;;;;9.87;2.60;;;13.10;63.80;;;;;;4958765;29;20452;-81
2023/12/28 12:33:48;;;;;;;7.50;1.83;;;13.10;63.80;;;;;;4956849;28;20455;-81
2023/12/28 12:36:15;;;;;;;10.70;1.83;;;13.00;63.70;;;;;;4957517;29;20514;-78
2023/12/28 12:38:43;;;;;;;10.50;2.23;;;12.90;63.60;;;;;;4958811;29;20452;-81